Time;durP1;ratioP1;P1;durP2;ratioP2;P2;SDS_P1;SDS_P2;PMS_P1;PMS_P2;Temp;Humidity;BMP_temperature;BMP_pressure;BME280_temperature;BME280_humidity;BME280_pressure;Samples;Min_cycle;Max_cycle;Signal;HPM_P1;HPM_P2
2021/03/26 00:00:43;;;;;;;19.00;11.75;;;5.40;99.90;;;;;;5045859;28;20041;-81
2021/03/26 00:03:13;;;;;;;19.30;13.00;;;5.40;99.90;;;;;;5029335;28;20029;-81
2021/03/26 00:05:39;;;;;;;21.27;13.07;;;5.50;99.90;;;;;;5029117;28;20026;-80
2021/03/26 00:08:05;;;;;;;26.85;13.82;;;5.50;99.90;;;;;;5028782;28;20401;-81
2021/03/26 00:10:31;;;;;;;21.70;13.32;;;5.60;99.90;;;;;;5028107;28;20075;-81
2021/03/26 00:12:57;;;;;;;23.65;14.10;;;5.50;99.90;;;;;;5045660;28;20081;-81
2021/03/26 00:15:23;;;;;;;23.52;12.95;;;5.50;99.90;;;;;;5045594;28;20267;-81
2021/03/26 00:17:49;;;;;;;20.40;12.57;;;5.40;99.90;;;;;;5046000;28;20036;-80
2021/03/26 00:20:15;;;;;;;20.00;12.40;;;5.40;99.90;;;;;;5065076;28;20040;-81
2021/03/26 00:22:40;;;;;;;23.70;12.13;;;5.50;99.90;;;;;;5065198;28;20037;-81
2021/03/26 00:25:09;;;;;;;20.67;12.07;;;5.40;99.90;;;;;;5065338;28;20025;-81
2021/03/26 00:27:35;;;;;;;19.20;11.55;;;5.30;99.90;;;;;;5048364;28;20480;-81
2021/03/26 00:30:01;;;;;;;20.33;11.40;;;5.40;99.90;;;;;;5065121;28;20032;-81
2021/03/26 00:32:26;;;;;;;23.58;12.57;;;5.40;99.90;;;;;;5065175;28;20033;-81
2021/03/26 00:34:54;;;;;;;20.77;12.60;;;5.30;99.90;;;;;;5064841;28;20044;-80
2021/03/26 00:37:21;;;;;;;23.55;13.60;;;5.30;99.90;;;;;;5064972;28;20123;-81
2021/03/26 00:39:47;;;;;;;21.55;12.30;;;5.40;99.90;;;;;;5064768;28;20044;-81
2021/03/26 00:42:13;;;;;;;21.52;12.43;;;5.40;99.90;;;;;;5064960;28;20060;-81
2021/03/26 00:44:39;;;;;;;26.85;13.93;;;5.40;99.90;;;;;;5064905;28;20032;-81
2021/03/26 00:47:05;;;;;;;23.98;13.75;;;5.50;99.90;;;;;;5064861;28;20037;-81
2021/03/26 00:49:31;;;;;;;23.92;14.13;;;5.40;99.90;;;;;;5064818;28;20033;-81
2021/03/26 00:51:57;;;;;;;22.67;13.15;;;5.30;99.90;;;;;;5048951;28;20079;-81
2021/03/26 00:54:22;;;;;;;20.00;12.55;;;5.20;99.90;;;;;;5028347;28;20033;-81
2021/03/26 00:56:48;;;;;;;20.85;11.50;;;5.20;99.90;;;;;;5028308;28;20029;-80
2021/03/26 00:59:14;;;;;;;20.20;11.70;;;5.20;99.90;;;;;;5044600;28;20029;-81
2021/03/26 01:01:40;;;;;;;18.88;11.85;;;5.30;99.90;;;;;;5028183;28;20044;-81
2021/03/26 01:04:06;;;;;;;21.88;11.63;;;5.30;99.90;;;;;;5028132;28;20030;-82
2021/03/26 01:06:32;;;;;;;22.08;13.32;;;5.20;99.90;;;;;;5040675;23;20080;-80
2021/03/26 01:08:59;;;;;;;22.08;12.95;;;5.30;99.90;;;;;;5064894;28;20088;-80
2021/03/26 01:11:30;;;;;;;22.77;14.43;;;5.40;99.90;;;;;;5064901;28;20431;-80
2021/03/26 01:13:58;;;;;;;23.25;15.50;;;5.40;99.90;;;;;;5048517;28;20056;-81
2021/03/26 01:16:27;;;;;;;21.25;14.52;;;5.30;99.90;;;;;;5064729;28;20017;-80
2021/03/26 01:18:55;;;;;;;25.35;16.27;;;5.30;99.90;;;;;;5064834;28;20064;-81
2021/03/26 01:21:25;;;;;;;23.95;12.98;;;5.30;99.90;;;;;;5064156;28;20045;-81
2021/03/26 01:23:51;;;;;;;;;;;5.30;99.90;;;;;;5065237;28;20181;-82
2021/03/26 01:26:18;;;;;;;20.92;12.63;;;5.30;99.90;;;;;;5081366;28;19912;-80
2021/03/26 01:28:51;;;;;;;21.40;12.88;;;5.20;99.90;;;;;;5064871;28;20048;-81
2021/03/26 01:31:39;;;;;;;23.25;12.98;;;5.20;99.90;;;;;;5054176;28;20078;-82
2021/03/26 01:34:07;;;;;;;22.63;13.82;;;5.20;99.90;;;;;;5048002;28;20029;-81
2021/03/26 01:36:36;;;;;;;18.48;11.10;;;5.40;99.90;;;;;;5064299;28;20025;-80
2021/03/26 01:39:09;;;;;;;19.65;11.05;;;5.30;99.90;;;;;;5064430;28;20032;-80
2021/03/26 01:41:46;;;;;;;20.85;11.57;;;5.30;99.90;;;;;;5064530;28;20484;-80
2021/03/26 01:44:25;;;;;;;19.90;10.55;;;5.30;99.90;;;;;;5064331;28;20033;-80
2021/03/26 01:46:52;;;;;;;19.33;11.35;;;5.30;99.90;;;;;;5064080;28;20113;-81
2021/03/26 01:49:21;;;;;;;17.52;10.50;;;5.20;99.90;;;;;;5064187;28;20033;-80
2021/03/26 01:51:50;;;;;;;20.58;12.45;;;5.20;99.90;;;;;;5063956;28;20029;-81
2021/03/26 01:54:20;;;;;;;22.60;12.48;;;5.30;99.90;;;;;;5064164;28;20040;-80
2021/03/26 01:56:47;;;;;;;18.52;11.05;;;5.20;99.90;;;;;;5064007;28;20032;-81
2021/03/26 01:59:39;;;;;;;20.10;10.82;;;5.20;99.90;;;;;;5063478;28;20049;-81
2021/03/26 02:02:21;;;;;;;20.35;11.05;;;5.10;99.90;;;;;;5064574;28;20065;-81
2021/03/26 02:05:39;;;;;;;18.98;10.30;;;5.20;99.90;;;;;;5063853;28;20025;-81
2021/03/26 02:08:30;;;;;;;18.15;10.20;;;5.20;99.90;;;;;;4986766;28;20082;-81
2021/03/26 02:11:04;;;;;;;19.33;11.25;;;5.30;99.90;;;;;;4987489;28;20082;-81
2021/03/26 02:13:35;;;;;;;19.13;11.30;;;5.40;99.90;;;;;;4987122;28;20034;-81
2021/03/26 02:16:12;;;;;;;23.65;11.75;;;5.40;99.90;;;;;;4988138;28;20026;-81
2021/03/26 02:18:51;;;;;;;22.52;12.93;;;5.50;99.90;;;;;;4987186;28;20037;-81
2021/03/26 02:21:43;;;;;;;19.77;10.80;;;5.60;99.90;;;;;;4986999;28;20042;-81
2021/03/26 02:24:10;;;;;;;18.52;10.82;;;5.50;99.90;;;;;;4985241;28;20069;-81
2021/03/26 02:26:45;;;;;;;19.95;10.82;;;5.50;99.90;;;;;;4970715;28;20526;-81
2021/03/26 02:29:24;;;;;;;18.52;10.60;;;5.50;99.90;;;;;;4987054;28;20633;-81
2021/03/26 02:32:25;;;;;;;20.25;11.40;;;5.40;99.90;;;;;;4989530;28;20065;-81
2021/03/26 02:35:23;;;;;;;20.50;10.95;;;5.30;99.90;;;;;;4989332;28;20045;-81
2021/03/26 02:37:56;;;;;;;19.75;10.15;;;5.30;99.90;;;;;;4967120;28;20065;-81
2021/03/26 02:40:34;;;;;;;18.73;9.85;;;5.20;99.90;;;;;;4990315;28;20038;-81
2021/03/26 02:43:31;;;;;;;19.08;10.68;;;5.10;99.90;;;;;;4990440;28;20054;-80
2021/03/26 02:46:21;;;;;;;17.10;9.75;;;5.20;99.90;;;;;;5039377;28;20041;-81
2021/03/26 02:49:08;;;;;;;19.60;10.60;;;5.10;99.90;;;;;;5030869;28;20022;-81
2021/03/26 02:51:42;;;;;;;20.63;10.40;;;5.10;99.90;;;;;;5042989;28;20086;-81
2021/03/26 02:54:29;;;;;;;19.90;10.95;;;5.20;99.90;;;;;;5066995;28;20040;-81
2021/03/26 02:57:02;;;;;;;16.33;9.75;;;5.00;99.90;;;;;;5066788;28;20092;-81
2021/03/26 02:59:46;;;;;;;21.67;11.13;;;5.10;99.90;;;;;;5068065;28;20033;-81
2021/03/26 03:02:15;;;;;;;18.30;11.02;;;5.00;99.90;;;;;;5066877;28;20366;-81
2021/03/26 03:05:24;;;;;;;18.08;10.05;;;5.00;99.90;;;;;;5066772;28;20021;-81
2021/03/26 03:08:04;;;;;;;18.92;10.20;;;5.00;99.90;;;;;;5064626;28;20033;-81
2021/03/26 03:10:48;;;;;;;19.48;10.63;;;5.00;99.90;;;;;;5067047;28;20051;-81
2021/03/26 03:13:29;;;;;;;16.98;9.40;;;5.00;99.90;;;;;;5066871;28;20036;-81
2021/03/26 03:16:02;;;;;;;20.75;11.48;;;5.10;99.90;;;;;;5066826;28;20028;-80
2021/03/26 03:18:34;;;;;;;20.52;11.43;;;5.10;99.90;;;;;;5066654;28;20040;-81
2021/03/26 03:21:15;;;;;;;23.48;13.18;;;5.10;99.90;;;;;;5066444;28;20037;-81
2021/03/26 03:23:47;;;;;;;23.10;12.30;;;5.10;99.90;;;;;;5066595;28;20032;-81
2021/03/26 03:26:34;;;;;;;19.90;11.70;;;5.20;99.90;;;;;;5083188;28;20056;-81
2021/03/26 03:29:11;;;;;;;21.67;12.55;;;5.10;99.90;;;;;;5083009;28;20025;-81
2021/03/26 03:32:21;;;;;;;22.65;12.48;;;5.10;99.90;;;;;;5063587;28;20469;-81
2021/03/26 03:35:05;;;;;;;22.53;12.33;;;5.20;99.90;;;;;;5066437;28;20036;-80
2021/03/26 03:37:49;;;;;;;26.38;13.80;;;5.20;99.90;;;;;;5049721;28;20053;-81
2021/03/26 03:40:31;;;;;;;24.15;12.32;;;5.30;99.90;;;;;;5082854;28;20060;-81
2021/03/26 03:43:12;;;;;;;24.15;13.75;;;5.20;99.90;;;;;;5066414;28;20028;-81
2021/03/26 03:46:02;;;;;;;23.20;13.60;;;5.30;99.90;;;;;;5082760;28;20033;-81
2021/03/26 03:48:51;;;;;;;27.23;13.18;;;5.30;99.90;;;;;;5066165;28;20033;-81
2021/03/26 03:51:21;;;;;;;24.58;14.52;;;5.30;99.90;;;;;;5065912;28;20032;-81
2021/03/26 03:53:55;;;;;;;22.25;13.77;;;5.40;99.90;;;;;;5066204;28;20025;-81
2021/03/26 03:56:23;;;;;;;23.88;14.07;;;5.50;99.90;;;;;;5049266;28;20033;-81
2021/03/26 03:59:06;;;;;;;26.70;14.38;;;5.60;99.90;;;;;;5066035;28;20413;-81
2021/03/26 04:01:48;;;;;;;27.95;15.48;;;5.60;99.90;;;;;;5066847;28;20040;-81
2021/03/26 04:04:17;;;;;;;25.67;13.90;;;5.70;99.90;;;;;;5066033;28;20028;-81
2021/03/26 04:07:11;;;;;;;26.63;15.57;;;5.70;99.90;;;;;;5065377;28;20045;-81
2021/03/26 04:09:46;;;;;;;27.10;14.25;;;5.70;99.90;;;;;;5065818;28;20108;-81
2021/03/26 04:12:28;;;;;;;26.85;14.63;;;5.70;99.90;;;;;;5065512;28;20032;-81
2021/03/26 04:15:05;;;;;;;25.35;14.38;;;5.80;99.90;;;;;;5065607;28;20111;-81
2021/03/26 04:17:45;;;;;;;26.95;14.52;;;5.70;99.90;;;;;;5053701;28;20059;-80
2021/03/26 04:20:37;;;;;;;26.63;14.85;;;5.80;99.90;;;;;;5065330;28;20083;-81
2021/03/26 04:23:14;;;;;;;24.73;13.98;;;5.80;99.90;;;;;;5065329;28;20025;-80
2021/03/26 04:26:26;;;;;;;25.70;15.13;;;5.80;99.90;;;;;;5065245;28;20044;-81
2021/03/26 04:29:15;;;;;;;23.40;13.43;;;5.90;99.90;;;;;;5065550;28;20087;-81
2021/03/26 04:32:04;;;;;;;25.20;14.38;;;6.00;99.90;;;;;;5065135;28;20131;-81
2021/03/26 04:34:32;;;;;;;27.67;15.40;;;6.00;99.90;;;;;;5065156;28;20108;-82
2021/03/26 04:37:24;;;;;;;25.15;14.68;;;6.10;99.90;;;;;;5081458;28;20029;-81
2021/03/26 04:40:14;;;;;;;26.67;15.40;;;6.10;99.90;;;;;;5064825;28;20037;-81
2021/03/26 04:43:15;;;;;;;28.55;15.75;;;6.20;99.90;;;;;;5064831;28;20025;-82
2021/03/26 04:46:14;;;;;;;27.83;15.10;;;6.20;99.90;;;;;;5065160;28;20045;-81
2021/03/26 04:49:24;;;;;;;31.83;17.00;;;6.20;99.90;;;;;;5025151;28;20033;-81
2021/03/26 04:52:00;;;;;;;32.17;17.17;;;6.20;99.90;;;;;;5048667;28;20527;-81
2021/03/26 04:54:36;;;;;;;29.83;17.13;;;6.30;99.90;;;;;;5048742;28;20021;-81
2021/03/26 04:57:24;;;;;;;28.92;16.45;;;6.30;99.90;;;;;;5048396;28;20040;-81
2021/03/26 04:59:57;;;;;;;;;;;6.30;99.90;;;;;;5048558;28;20041;-81
2021/03/26 05:02:24;;;;;;;27.98;15.70;;;6.30;99.90;;;;;;5064507;28;19912;-81
2021/03/26 05:04:55;;;;;;;29.70;16.33;;;6.30;99.90;;;;;;5048318;28;20046;-81
2021/03/26 05:07:58;;;;;;;30.58;16.75;;;6.30;99.90;;;;;;5048420;28;20067;-81
2021/03/26 05:10:27;;;;;;;29.52;17.48;;;6.40;99.90;;;;;;5040187;28;20097;-81
2021/03/26 05:13:12;;;;;;;29.80;16.88;;;6.40;99.90;;;;;;5049666;28;20029;-81
2021/03/26 05:15:58;;;;;;;30.17;16.08;;;6.40;99.90;;;;;;5048656;28;20029;-81
2021/03/26 05:18:40;;;;;;;28.08;16.92;;;6.40;99.90;;;;;;5064382;28;20025;-81
2021/03/26 05:21:16;;;;;;;32.78;17.15;;;6.50;99.90;;;;;;5048208;28;20067;-81
2021/03/26 05:24:55;;;;;;;35.97;19.73;;;6.40;99.90;;;;;;5064518;28;20060;-82
2021/03/26 05:27:54;;;;;;;38.65;20.15;;;6.50;99.90;;;;;;4991043;28;20041;-81
2021/03/26 05:30:42;;;;;;;32.55;17.70;;;6.60;99.90;;;;;;5023306;28;20030;-81
2021/03/26 05:33:24;;;;;;;38.30;20.83;;;6.60;99.90;;;;;;5006932;28;20034;-82
2021/03/26 05:36:08;;;;;;;31.48;17.45;;;6.60;99.90;;;;;;5023103;28;20050;-81
2021/03/26 05:39:14;;;;;;;34.45;19.27;;;6.60;99.90;;;;;;5022842;28;20044;-81
2021/03/26 05:42:17;;;;;;;34.17;19.35;;;6.60;99.90;;;;;;5008685;28;20545;-82
2021/03/26 05:45:18;;;;;;;31.17;18.13;;;6.60;99.90;;;;;;5015842;28;20030;-81
2021/03/26 05:48:13;;;;;;;30.17;16.92;;;6.60;99.90;;;;;;5017281;28;20065;-82
2021/03/26 05:51:05;;;;;;;31.08;18.30;;;6.70;99.90;;;;;;5020943;28;20066;-81
2021/03/26 05:53:47;;;;;;;32.25;18.58;;;6.70;99.90;;;;;;5005905;28;20030;-82
2021/03/26 05:56:32;;;;;;;31.30;18.08;;;6.80;99.90;;;;;;5006019;28;20030;-81
2021/03/26 05:59:27;;;;;;;32.97;19.33;;;6.80;99.90;;;;;;5006165;28;20034;-81
2021/03/26 06:02:24;;;;;;;30.00;17.65;;;6.80;99.90;;;;;;5047445;28;20037;-81
2021/03/26 06:08:58;;;;;;;35.67;19.42;;;6.80;99.90;;;;;;5004583;28;20089;-82
2021/03/26 06:11:57;;;;;;;35.20;18.83;;;6.90;99.90;;;;;;5008278;28;20037;-81
2021/03/26 06:15:27;;;;;;;34.03;19.00;;;6.90;99.90;;;;;;4980842;28;20061;-81
2021/03/26 06:19:02;;;;;;;27.75;15.77;;;6.90;99.90;;;;;;4921719;29;20122;-81
2021/03/26 06:22:00;;;;;;;32.58;16.95;;;6.90;99.90;;;;;;4924485;29;20047;-82
2021/03/26 06:25:23;;;;;;;29.85;16.60;;;7.00;99.90;;;;;;4975829;28;20046;-82
2021/03/26 06:28:06;;;;;;;31.33;17.17;;;7.00;99.90;;;;;;4988212;28;20038;-82
2021/03/26 06:30:58;;;;;;;37.40;19.55;;;7.00;99.90;;;;;;4988203;28;20038;-81
2021/03/26 06:34:19;;;;;;;35.42;18.15;;;7.10;99.90;;;;;;4988401;28;20479;-82
2021/03/26 06:37:21;;;;;;;35.28;18.70;;;7.20;99.90;;;;;;4988095;28;20054;-81
2021/03/26 06:40:14;;;;;;;38.08;19.88;;;7.20;99.90;;;;;;4988100;28;20510;-82
2021/03/26 06:43:05;;;;;;;32.75;19.10;;;7.30;99.90;;;;;;4987708;28;20031;-81
2021/03/26 06:45:45;;;;;;;33.20;18.23;;;7.30;99.90;;;;;;4971796;28;20031;-81
2021/03/26 06:48:14;;;;;;;38.80;19.15;;;7.40;99.90;;;;;;4987643;28;20038;-81
2021/03/26 06:50:55;;;;;;;32.22;18.42;;;7.40;99.90;;;;;;5010629;28;20483;-81
2021/03/26 06:53:26;;;;;;;33.30;18.35;;;7.50;99.90;;;;;;4991512;28;20042;-81
2021/03/26 06:56:07;;;;;;;32.75;17.45;;;7.50;99.90;;;;;;4991715;28;20031;-82
2021/03/26 06:59:05;;;;;;;33.10;17.63;;;7.50;99.90;;;;;;4987472;28;20098;-81
2021/03/26 07:01:49;;;;;;;32.95;18.75;;;7.50;99.90;;;;;;5006934;28;20136;-82
2021/03/26 07:04:21;;;;;;;31.48;16.95;;;7.60;99.90;;;;;;5007037;28;20070;-81
2021/03/26 07:07:12;;;;;;;28.95;16.88;;;7.60;99.90;;;;;;5006753;28;20053;-82
2021/03/26 07:10:11;;;;;;;31.40;18.67;;;7.70;99.90;;;;;;5006733;28;20030;-81
2021/03/26 07:13:16;;;;;;;28.50;16.93;;;7.80;99.90;;;;;;5006658;28;20038;-82
2021/03/26 07:16:19;;;;;;;29.67;17.30;;;7.80;99.90;;;;;;4975055;28;20106;-82
2021/03/26 07:19:10;;;;;;;36.17;17.73;;;7.90;99.90;;;;;;4987017;28;20125;-82
2021/03/26 07:22:00;;;;;;;31.10;18.25;;;7.90;99.90;;;;;;4987871;28;20046;-82
2021/03/26 07:24:39;;;;;;;28.75;16.13;;;8.00;99.90;;;;;;5006261;28;20030;-83
2021/03/26 07:27:16;;;;;;;28.23;16.65;;;8.00;99.90;;;;;;4972779;28;20296;-82
2021/03/26 07:30:19;;;;;;;36.47;20.17;;;8.10;99.90;;;;;;4981636;28;20039;-82
2021/03/26 07:33:11;;;;;;;29.15;18.02;;;8.20;99.90;;;;;;4988892;28;20022;-82
2021/03/26 07:35:53;;;;;;;30.88;18.35;;;8.20;99.90;;;;;;5004852;28;20034;-81
2021/03/26 07:38:34;;;;;;;30.45;17.52;;;8.30;99.90;;;;;;5002859;28;20044;-82
2021/03/26 07:41:34;;;;;;;30.30;18.02;;;8.30;99.90;;;;;;4988761;28;20034;-81
2021/03/26 07:44:48;;;;;;;30.65;17.00;;;8.40;99.90;;;;;;4988042;28;20031;-81
2021/03/26 07:47:53;;;;;;;31.88;17.65;;;8.50;99.90;;;;;;4942485;28;20033;-84
2021/03/26 07:50:34;;;;;;;30.98;17.67;;;8.60;99.90;;;;;;5003786;28;20045;-82
2021/03/26 07:53:17;;;;;;;32.80;19.00;;;8.70;99.90;;;;;;4987124;28;20447;-82
2021/03/26 07:56:04;;;;;;;35.25;20.20;;;8.80;99.90;;;;;;4988679;28;20142;-82
2021/03/26 07:58:36;;;;;;;31.67;18.55;;;8.80;99.90;;;;;;4988123;28;20113;-82
2021/03/26 08:01:12;;;;;;;32.00;18.23;;;8.90;99.90;;;;;;4987391;28;20454;-82
2021/03/26 08:04:22;;;;;;;30.90;18.90;;;9.20;99.90;;;;;;4988442;28;20089;-81
2021/03/26 08:07:12;;;;;;;40.17;22.20;;;9.40;99.90;;;;;;5000686;28;20050;-82
2021/03/26 08:10:00;;;;;;;37.25;22.38;;;9.60;99.90;;;;;;4988308;28;20030;-82
2021/03/26 08:13:00;;;;;;;37.95;20.95;;;9.70;99.90;;;;;;4986963;28;20038;-82
2021/03/26 08:15:51;;;;;;;37.10;21.73;;;9.90;99.90;;;;;;4986205;28;20041;-82
2021/03/26 08:18:23;;;;;;;35.58;21.75;;;10.10;99.90;;;;;;4984864;28;20105;-82
2021/03/26 08:21:18;;;;;;;33.65;20.48;;;10.30;99.90;;;;;;4988460;28;20038;-81
2021/03/26 08:24:29;;;;;;;31.95;19.17;;;10.60;99.90;;;;;;5000042;28;20062;-82
2021/03/26 08:26:58;;;;;;;33.83;20.23;;;10.60;99.90;;;;;;4985788;28;20054;-83
2021/03/26 08:29:35;;;;;;;36.47;20.45;;;10.60;99.90;;;;;;4995998;28;20050;-82
2021/03/26 08:32:07;;;;;;;36.08;20.90;;;10.70;99.90;;;;;;4985542;28;20105;-82
2021/03/26 08:34:55;;;;;;;33.30;18.63;;;10.70;99.90;;;;;;4987048;28;20038;-82
2021/03/26 08:38:07;;;;;;;34.10;19.55;;;10.90;99.90;;;;;;4984827;28;20034;-82
2021/03/26 08:40:49;;;;;;;32.00;19.52;;;10.90;99.90;;;;;;4986755;28;20038;-82
2021/03/26 08:43:17;;;;;;;30.27;16.88;;;11.10;99.90;;;;;;4988354;28;20030;-82
2021/03/26 08:45:59;;;;;;;30.08;17.60;;;11.30;99.90;;;;;;4987948;28;20038;-82
2021/03/26 08:48:39;;;;;;;28.70;17.90;;;11.30;99.90;;;;;;5002631;28;20037;-82
2021/03/26 08:51:32;;;;;;;28.30;16.60;;;11.40;99.90;;;;;;4989167;28;20054;-83
2021/03/26 08:54:35;;;;;;;28.95;17.13;;;11.60;99.90;;;;;;5002074;28;20074;-83
2021/03/26 08:57:23;;;;;;;27.58;16.50;;;11.50;99.90;;;;;;4985278;28;20041;-83
2021/03/26 09:00:21;;;;;;;23.58;15.15;;;11.60;99.90;;;;;;4988087;28;20046;-83
2021/03/26 09:02:57;;;;;;;24.35;15.75;;;11.80;99.90;;;;;;4985996;28;20073;-82
2021/03/26 09:06:01;;;;;;;22.85;14.77;;;11.80;99.90;;;;;;5002011;28;20112;-83
2021/03/26 09:08:46;;;;;;;24.33;13.95;;;12.00;99.90;;;;;;4979519;28;20110;-84
2021/03/26 09:11:32;;;;;;;23.35;13.68;;;12.30;99.90;;;;;;4951152;28;20034;-83
2021/03/26 09:14:07;;;;;;;25.58;16.42;;;12.30;99.90;;;;;;4964699;28;20423;-83
2021/03/26 09:16:40;;;;;;;26.92;15.13;;;12.30;99.90;;;;;;4966293;28;20054;-83
2021/03/26 09:19:19;;;;;;;26.15;16.02;;;12.30;99.90;;;;;;4981862;28;20043;-82
2021/03/26 09:21:58;;;;;;;20.77;13.55;;;12.50;99.90;;;;;;4951783;28;20049;-83
2021/03/26 09:25:02;;;;;;;22.48;14.13;;;12.70;99.90;;;;;;4979818;28;20031;-83
2021/03/26 09:27:52;;;;;;;21.15;12.98;;;13.10;99.90;;;;;;4963489;28;20039;-83
2021/03/26 09:30:30;;;;;;;18.02;12.00;;;13.20;99.90;;;;;;4983104;28;20494;-84
2021/03/26 09:33:02;;;;;;;18.83;11.50;;;13.10;99.90;;;;;;4963642;28;20043;-83
2021/03/26 09:35:41;;;;;;;17.65;9.45;;;13.10;99.90;;;;;;4963681;28;20100;-83
2021/03/26 09:38:09;;;;;;;16.40;9.77;;;13.20;99.90;;;;;;4965057;28;20039;-83
2021/03/26 09:41:13;;;;;;;20.20;10.73;;;12.90;99.90;;;;;;4983065;28;20043;-83
2021/03/26 09:43:53;;;;;;;15.45;9.82;;;12.80;99.90;;;;;;4969023;28;20071;-82
2021/03/26 09:46:28;;;;;;;20.02;9.52;;;12.80;99.90;;;;;;4977406;28;20050;-82
2021/03/26 09:48:59;;;;;;;15.38;10.63;;;13.00;99.90;;;;;;4990160;28;20046;-82
2021/03/26 09:51:43;;;;;;;17.27;9.45;;;12.80;99.90;;;;;;5013526;28;20034;-82
2021/03/26 09:54:33;;;;;;;17.00;8.85;;;13.10;99.90;;;;;;4989784;28;20043;-82
2021/03/26 09:57:01;;;;;;;14.23;7.95;;;13.10;99.90;;;;;;4989351;28;20038;-82
2021/03/26 09:59:49;;;;;;;14.10;7.63;;;13.20;99.90;;;;;;4986963;28;20041;-82
2021/03/26 10:02:37;;;;;;;10.90;7.22;;;13.10;99.90;;;;;;4990776;28;20065;-83
2021/03/26 10:05:44;;;;;;;14.15;7.60;;;13.30;99.90;;;;;;4990817;28;20031;-83
2021/03/26 10:11:12;;;;;;;10.45;5.30;;;13.80;99.90;;;;;;4969747;29;20098;-82
2021/03/26 10:13:45;;;;;;;7.40;4.35;;;13.80;99.90;;;;;;4970294;29;20043;-82
2021/03/26 10:16:15;;;;;;;14.85;6.55;;;13.90;99.90;;;;;;4967752;28;20062;-81
2021/03/26 10:18:59;;;;;;;10.50;6.07;;;13.90;99.90;;;;;;4955110;29;20057;-83
2021/03/26 10:21:29;;;;;;;11.80;5.95;;;14.10;99.90;;;;;;4969254;29;20074;-82
2021/03/26 10:23:59;;;;;;;;;;;14.20;99.90;;;;;;4954164;28;20454;-82
2021/03/26 10:26:43;;;;;;;9.00;4.22;;;14.50;99.90;;;;;;4953562;29;19921;-83
2021/03/26 10:29:43;;;;;;;9.20;5.13;;;14.60;99.90;;;;;;4958039;28;20051;-84
2021/03/26 10:32:21;;;;;;;10.77;5.18;;;14.00;99.90;;;;;;4966727;29;20066;-83
2021/03/26 10:34:48;;;;;;;11.80;5.07;;;13.70;99.90;;;;;;4966987;28;20057;-83
2021/03/26 10:37:57;;;;;;;10.70;5.60;;;13.50;99.90;;;;;;4952939;29;20464;-83
2021/03/26 10:40:46;;;;;;;9.10;4.22;;;13.40;99.90;;;;;;4906445;29;20383;-81
2021/03/26 10:43:22;;;;;;;9.38;4.90;;;13.30;99.90;;;;;;4899128;29;20105;-82
2021/03/26 10:46:00;;;;;;;9.63;3.97;;;13.30;99.90;;;;;;4918739;29;20044;-82
2021/03/26 10:48:26;;;;;;;8.88;4.47;;;13.50;99.90;;;;;;4910763;29;20048;-83
2021/03/26 10:51:22;;;;;;;10.27;4.05;;;13.40;99.90;;;;;;4920078;29;20044;-83
2021/03/26 10:53:54;;;;;;;9.88;3.10;;;13.20;99.90;;;;;;4907818;29;20046;-82
2021/03/26 10:56:25;;;;;;;9.60;2.70;;;13.30;99.90;;;;;;4896798;29;20048;-82
2021/03/26 10:59:00;;;;;;;8.93;2.40;;;13.20;99.90;;;;;;4908229;29;20059;-82
2021/03/26 11:01:34;;;;;;;5.32;2.40;;;13.30;99.90;;;;;;4899414;29;20081;-82
2021/03/26 11:04:43;;;;;;;4.97;2.10;;;13.50;99.90;;;;;;4912975;29;20120;-83
2021/03/26 11:07:19;;;;;;;4.70;1.38;;;13.60;99.90;;;;;;4968243;22;20538;-81
2021/03/26 11:09:54;;;;;;;4.80;1.38;;;14.20;99.90;;;;;;5029806;28;20120;-81
2021/03/26 11:12:48;;;;;;;6.00;1.00;;;14.00;99.90;;;;;;5048927;28;20034;-83
2021/03/26 11:15:22;;;;;;;5.22;1.20;;;13.80;99.90;;;;;;5070734;28;20029;-82
2021/03/26 11:18:18;;;;;;;4.45;1.02;;;13.50;99.90;;;;;;5045740;28;20087;-82
2021/03/26 11:21:00;;;;;;;3.95;1.00;;;13.50;99.90;;;;;;5063677;28;20041;-81
2021/03/26 11:23:29;;;;;;;4.15;0.60;;;13.40;99.90;;;;;;5046908;28;20025;-83
2021/03/26 11:26:04;;;;;;;3.83;0.75;;;13.60;99.90;;;;;;5042938;28;20033;-83
2021/03/26 11:28:53;;;;;;;3.22;1.20;;;13.70;99.90;;;;;;5021735;28;20049;-82
2021/03/26 11:31:41;;;;;;;4.05;0.95;;;13.80;99.90;;;;;;5048962;28;20048;-83
2021/03/26 11:34:22;;;;;;;6.95;0.90;;;13.80;99.90;;;;;;5031335;28;20096;-81
2021/03/26 11:36:47;;;;;;;3.28;0.77;;;13.70;99.90;;;;;;5050840;28;20028;-82
2021/03/26 11:39:20;;;;;;;3.28;0.65;;;13.60;99.90;;;;;;5039283;28;20492;-82
2021/03/26 11:41:52;;;;;;;4.30;0.80;;;13.90;99.90;;;;;;5050929;28;20038;-82
2021/03/26 11:44:20;;;;;;;4.47;0.70;;;14.20;99.90;;;;;;5066161;28;20030;-82
2021/03/26 11:46:56;;;;;;;3.63;0.90;;;14.30;99.90;;;;;;5071491;28;20037;-81
2021/03/26 11:49:30;;;;;;;3.25;0.60;;;14.50;99.90;;;;;;5052048;28;20029;-83
2021/03/26 11:52:05;;;;;;;3.45;0.60;;;14.50;99.90;;;;;;5042320;28;20032;-83
2021/03/26 11:54:49;;;;;;;4.03;1.08;;;14.50;99.90;;;;;;5044850;28;20025;-82
2021/03/26 11:57:27;;;;;;;2.88;0.60;;;14.10;99.90;;;;;;5038390;28;20045;-83
2021/03/26 12:00:05;;;;;;;3.53;0.60;;;14.20;99.90;;;;;;5031116;28;20025;-81
2021/03/26 12:02:55;;;;;;;2.75;0.80;;;14.10;99.90;;;;;;5048049;28;20429;-83
2021/03/26 12:06:00;;;;;;;6.57;0.90;;;14.60;99.90;;;;;;5043574;28;20029;-84
2021/03/26 12:08:47;;;;;;;5.50;0.60;;;14.30;99.90;;;;;;5028090;28;20049;-84
2021/03/26 12:11:20;;;;;;;3.70;0.60;;;13.90;99.90;;;;;;5014983;28;20032;-83
2021/03/26 12:14:17;;;;;;;4.60;0.70;;;14.00;99.90;;;;;;4994660;28;20045;-83
2021/03/26 12:17:07;;;;;;;5.40;0.70;;;13.90;99.90;;;;;;5010065;28;20084;-82
2021/03/26 12:19:37;;;;;;;3.03;0.60;;;14.30;99.90;;;;;;5009805;28;20046;-84
2021/03/26 12:22:25;;;;;;;3.05;0.60;;;14.60;99.90;;;;;;5026870;28;20062;-83
2021/03/26 12:25:21;;;;;;;3.72;1.38;;;14.90;99.90;;;;;;5012379;28;20038;-82
2021/03/26 12:27:49;;;;;;;5.35;1.17;;;15.00;99.90;;;;;;4996370;28;20029;-82
2021/03/26 12:30:35;;;;;;;3.53;0.65;;;15.00;99.90;;;;;;5000899;28;20061;-83
2021/03/26 12:33:09;;;;;;;4.07;1.08;;;15.40;99.90;;;;;;5006071;28;20536;-82
2021/03/26 12:35:47;;;;;;;3.17;0.68;;;15.20;99.90;;;;;;5006130;28;20442;-83
2021/03/26 12:38:19;;;;;;;3.70;0.60;;;15.30;99.90;;;;;;5008371;28;20052;-83
2021/03/26 12:40:54;;;;;;;2.78;0.60;;;15.40;99.90;;;;;;5011907;28;20044;-82
2021/03/26 12:43:30;;;;;;;3.83;0.80;;;15.30;99.90;;;;;;5029428;28;20029;-83
2021/03/26 12:46:01;;;;;;;4.65;0.80;;;15.50;99.90;;;;;;5044767;28;20105;-82
2021/03/26 12:48:41;;;;;;;2.67;0.40;;;15.70;99.90;;;;;;5061453;28;20021;-81
2021/03/26 12:51:16;;;;;;;3.92;0.80;;;16.00;99.90;;;;;;5034189;28;20489;-83
2021/03/26 12:53:50;;;;;;;6.18;0.85;;;15.70;99.90;;;;;;5048585;28;20042;-84
2021/03/26 12:56:55;;;;;;;2.80;0.70;;;15.80;99.90;;;;;;5066085;28;20025;-85
2021/03/26 12:59:24;;;;;;;3.85;0.73;;;16.00;99.90;;;;;;5020701;28;20072;-84
2021/03/26 13:02:27;;;;;;;2.83;0.60;;;15.90;99.90;;;;;;5046898;28;20065;-84
2021/03/26 13:05:26;;;;;;;5.57;0.77;;;15.80;99.90;;;;;;5004421;28;20048;-84
2021/03/26 13:08:06;;;;;;;3.05;0.85;;;15.20;99.90;;;;;;4974784;28;20051;-84
2021/03/26 13:10:54;;;;;;;4.10;0.82;;;15.50;99.90;;;;;;4974332;28;20042;-83
2021/03/26 13:13:33;;;;;;;7.32;1.25;;;15.90;99.90;;;;;;4963456;28;20047;-84
2021/03/26 13:16:22;;;;;;;4.13;1.00;;;15.80;99.90;;;;;;4971500;28;20396;-83
2021/03/26 13:18:55;;;;;;;6.10;1.00;;;15.60;99.90;;;;;;4989081;28;20042;-85
2021/03/26 13:21:27;;;;;;;5.18;1.23;;;15.60;99.90;;;;;;4973941;28;20106;-82
2021/03/26 13:24:15;;;;;;;5.45;0.98;;;15.60;99.90;;;;;;4966633;28;20041;-83
2021/03/26 13:26:41;;;;;;;4.68;0.90;;;15.60;99.90;;;;;;4954841;28;20130;-82
2021/03/26 13:29:19;;;;;;;3.97;1.23;;;15.80;99.90;;;;;;4951726;28;20050;-83
2021/03/26 13:31:46;;;;;;;4.57;0.73;;;15.50;99.90;;;;;;4971245;28;20050;-85
2021/03/26 13:34:20;;;;;;;5.53;0.75;;;15.50;99.90;;;;;;4961689;28;20537;-83
2021/03/26 13:36:46;;;;;;;6.35;1.70;;;15.30;99.90;;;;;;4959069;28;20066;-85
2021/03/26 13:39:29;;;;;;;3.88;0.85;;;15.00;99.90;;;;;;4993997;28;20087;-83
2021/03/26 13:42:00;;;;;;;5.85;1.02;;;15.40;99.90;;;;;;4960091;28;20462;-83
2021/03/26 13:44:44;;;;;;;4.15;1.00;;;16.00;99.90;;;;;;4982217;28;20136;-82
2021/03/26 13:47:22;;;;;;;4.13;1.00;;;16.20;99.90;;;;;;5047708;28;20507;-82
2021/03/26 13:50:09;;;;;;;5.97;0.82;;;16.50;99.90;;;;;;5049122;28;20079;-82
2021/03/26 13:52:38;;;;;;;5.50;1.13;;;16.40;99.90;;;;;;5026293;28;20370;-82
2021/03/26 13:55:38;;;;;;;2.40;0.80;;;15.80;99.90;;;;;;5042717;28;20093;-83
2021/03/26 13:58:35;;;;;;;3.65;0.70;;;15.40;99.90;;;;;;5041272;28;20389;-83
2021/03/26 14:01:05;;;;;;;2.55;0.60;;;15.40;99.90;;;;;;5050458;28;20052;-83
2021/03/26 14:03:43;;;;;;;3.65;0.88;;;15.30;99.90;;;;;;5050658;28;20022;-82